createdAt,value
2023-05-25T00:00:41.870Z,93681.53
2023-05-25T00:01:49.289Z,93687.91
2023-05-25T00:02:49.206Z,93682.53
2023-05-25T00:03:45.993Z,93682.63
2023-05-25T00:04:42.742Z,93682.94
2023-05-25T00:05:39.768Z,93682.16
2023-05-25T00:06:41.256Z,93672.66
2023-05-25T00:07:38.205Z,93682.34
2023-05-25T00:08:34.854Z,93682.09
2023-05-25T00:09:31.431Z,93679.03
2023-05-25T00:10:27.913Z,93681.16
2023-05-25T00:11:24.967Z,93680.75
2023-05-25T00:12:21.469Z,93678.94
2023-05-25T00:13:18.094Z,93680.09
2023-05-25T00:14:14.685Z,93683.44
2023-05-25T00:15:11.480Z,93678.19
2023-05-25T00:16:08.073Z,93678.91
2023-05-25T00:17:05.399Z,93682.47
2023-05-25T00:18:02.069Z,93679.63
2023-05-25T00:18:58.641Z,93677.06
2023-05-25T00:19:58.134Z,93679.72
2023-05-25T00:20:54.850Z,93682.34
2023-05-25T00:21:52.241Z,93683.41
2023-05-25T00:22:48.893Z,93681.84
2023-05-25T00:23:45.504Z,93674.03
2023-05-25T00:24:42.150Z,93682.72
2023-05-25T00:25:38.859Z,93684.53
2023-05-25T00:26:35.777Z,93678.09
2023-05-25T00:27:32.532Z,93692.41
2023-05-25T00:28:29.326Z,93679.72
2023-05-25T00:29:26.209Z,93686.06
2023-05-25T00:30:22.823Z,93684.84
2023-05-25T00:31:19.379Z,93689.44
2023-05-25T00:32:16.185Z,93684.78
2023-05-25T00:33:13.164Z,93687.78
2023-05-25T00:34:09.749Z,93679.63
2023-05-25T00:35:06.731Z,93679.59
2023-05-25T00:36:03.594Z,93686.31
2023-05-25T00:37:00.145Z,93678.91
2023-05-25T00:37:56.650Z,93690.91
2023-05-25T00:38:54.716Z,93683.28
2023-05-25T00:39:51.262Z,93685.34
2023-05-25T00:40:47.832Z,93684.94
2023-05-25T00:41:45.141Z,93683.78
2023-05-25T00:42:41.682Z,93684.44
2023-05-25T00:43:38.475Z,93692.97
2023-05-25T00:44:35.027Z,93686.91
2023-05-25T00:45:31.632Z,93685.63
2023-05-25T00:46:28.396Z,93692.53
2023-05-25T00:47:25.030Z,93685.34
2023-05-25T00:48:22.632Z,93680.56
2023-05-25T00:49:20.251Z,93685.34
2023-05-25T00:50:17.863Z,93681.50
2023-05-25T00:51:15.744Z,93681.09
2023-05-25T00:52:13.107Z,93689.53
2023-05-25T00:53:10.661Z,93693.47
2023-05-25T00:54:07.673Z,93685.72
2023-05-25T00:55:06.821Z,93683.91
2023-05-25T00:56:08.400Z,93688.59
2023-05-25T00:57:07.337Z,93686.22
2023-05-25T00:58:04.296Z,93687.03
2023-05-25T00:59:03.002Z,93690.41
2023-05-25T01:00:00.924Z,93684.59
2023-05-25T01:00:58.485Z,93685.63
2023-05-25T01:01:55.569Z,93689.34
2023-05-25T01:02:54.025Z,93690.16
2023-05-25T01:03:54.130Z,93688.69
2023-05-25T01:04:53.261Z,93704.56
2023-05-25T01:05:51.439Z,93691.94
2023-05-25T01:06:48.653Z,93693.56
2023-05-25T01:07:46.243Z,93690.09
2023-05-25T01:08:45.103Z,93692.31
2023-05-25T01:09:44.339Z,93700.41
2023-05-25T01:10:42.502Z,93692.63
2023-05-25T01:11:40.215Z,93693.16
2023-05-25T01:12:37.875Z,93690.34
2023-05-25T01:13:34.555Z,93688.22
2023-05-25T01:14:31.470Z,93686.38
2023-05-25T01:15:29.280Z,93687.78
2023-05-25T01:16:28.549Z,93686.44
2023-05-25T01:17:26.592Z,93687.31
2023-05-25T01:18:23.166Z,93693.00
2023-05-25T01:19:19.689Z,93688.38
2023-05-25T01:20:16.440Z,93692.19
2023-05-25T01:21:18.152Z,93687.94
2023-05-25T01:22:17.533Z,93689.06
2023-05-25T01:23:17.627Z,93687.88
2023-05-25T01:24:40.864Z,93683.47
2023-05-25T01:25:40.206Z,93681.06
2023-05-25T01:26:39.499Z,93680.03
2023-05-25T01:27:40.725Z,93673.03
2023-05-25T01:28:41.204Z,93683.91
2023-05-25T01:29:40.216Z,93681.38
2023-05-25T01:30:37.297Z,93684.78
2023-05-25T01:31:35.317Z,93678.88
2023-05-25T01:32:32.628Z,93586.56
2023-05-25T01:33:30.458Z,93681.44
2023-05-25T01:34:28.655Z,93677.06
2023-05-25T01:35:25.538Z,93682.34
2023-05-25T01:36:22.174Z,93674.44
2023-05-25T01:37:19.681Z,93674.91
2023-05-25T01:38:17.809Z,93671.16
2023-05-25T01:39:14.550Z,93668.28
2023-05-25T01:40:11.582Z,93673.97
2023-05-25T01:41:08.153Z,93665.59
2023-05-25T01:42:04.806Z,93668.56
2023-05-25T01:43:01.469Z,93668.88
2023-05-25T01:43:58.084Z,93664.34
2023-05-25T01:44:54.742Z,93669.50
2023-05-25T01:45:54.548Z,93664.63
2023-05-25T01:46:54.038Z,93662.25
2023-05-25T01:48:19.625Z,93664.44
2023-05-25T01:49:19.978Z,93667.50
2023-05-25T01:50:26.871Z,93668.13
2023-05-25T01:51:33.058Z,93669.59
2023-05-25T01:52:31.992Z,93671.16
2023-05-25T01:53:30.551Z,93669.66
2023-05-25T01:54:37.956Z,93673.91
2023-05-25T01:55:37.936Z,93680.66
2023-05-25T01:56:35.565Z,93673.31
2023-05-25T01:57:36.193Z,93677.38
2023-05-25T01:58:35.582Z,93685.34
2023-05-25T01:59:33.287Z,93671.72
2023-05-25T02:00:34.282Z,93676.59
2023-05-25T02:01:31.530Z,93676.56
2023-05-25T02:02:28.493Z,93682.59
2023-05-25T02:03:25.187Z,93686.41
2023-05-25T02:04:22.775Z,93524.03
2023-05-25T02:05:22.111Z,93684.22
2023-05-25T02:06:19.100Z,93689.94
2023-05-25T02:07:15.736Z,93684.19
2023-05-25T02:08:12.511Z,93684.19
2023-05-25T02:09:09.039Z,93683.88
2023-05-25T02:10:06.008Z,93683.69
2023-05-25T02:11:03.535Z,93683.66
2023-05-25T02:12:00.158Z,93686.44
2023-05-25T02:12:56.702Z,93678.81
2023-05-25T02:13:53.313Z,93685.56
2023-05-25T02:14:49.885Z,93685.25
2023-05-25T02:15:46.644Z,93679.72
2023-05-25T02:16:46.117Z,93684.91
2023-05-25T02:17:43.400Z,93689.50
2023-05-25T02:18:40.099Z,93682.88
2023-05-25T02:19:36.758Z,93692.47
2023-05-25T02:20:33.394Z,93688.97
2023-05-25T02:21:29.875Z,93695.13
2023-05-25T02:22:26.415Z,93689.16
2023-05-25T02:23:22.996Z,93693.44
2023-05-25T02:24:19.656Z,93694.16
2023-05-25T02:25:16.369Z,93694.72
2023-05-25T02:26:12.959Z,93693.75
2023-05-25T02:27:12.807Z,93690.25
2023-05-25T02:28:09.368Z,93691.56
2023-05-25T02:29:06.605Z,93694.00
2023-05-25T02:30:03.226Z,93695.91
2023-05-25T02:30:59.860Z,93698.75
2023-05-25T02:31:56.504Z,93696.13
2023-05-25T02:32:54.130Z,93698.41
2023-05-25T02:33:50.678Z,93696.03
2023-05-25T02:34:47.882Z,93694.53
2023-05-25T02:35:44.653Z,93695.72
2023-05-25T02:36:43.446Z,93701.38
2023-05-25T02:37:40.209Z,93696.56
2023-05-25T02:38:36.763Z,93701.38
2023-05-25T02:39:33.308Z,93694.94
2023-05-25T02:40:29.956Z,93702.53
2023-05-25T02:41:27.249Z,93696.31
2023-05-25T02:42:23.843Z,93699.53
2023-05-25T02:43:20.403Z,93698.09
2023-05-25T02:44:17.028Z,93701.56
2023-05-25T02:45:13.707Z,93700.75
2023-05-25T02:46:10.371Z,93700.75
2023-05-25T02:47:07.809Z,93708.94
2023-05-25T02:48:04.619Z,93706.81
2023-05-25T02:49:01.320Z,93706.72
2023-05-25T02:49:57.816Z,93703.25
2023-05-25T02:50:54.310Z,93711.00
2023-05-25T02:51:50.855Z,93707.88
2023-05-25T02:52:47.548Z,93707.75
2023-05-25T02:53:44.086Z,93710.22
2023-05-25T02:54:41.722Z,93709.59
2023-05-25T02:55:40.539Z,93707.69
2023-05-25T02:56:37.149Z,93710.94
2023-05-25T02:57:33.802Z,93716.94
2023-05-25T02:58:30.559Z,93714.81
2023-05-25T02:59:27.336Z,93722.31
2023-05-25T03:00:24.427Z,93712.66
2023-05-25T03:01:21.142Z,93709.06
2023-05-25T03:02:18.545Z,93718.47
2023-05-25T03:03:15.157Z,93715.38
2023-05-25T03:04:11.696Z,93714.84
2023-05-25T03:05:08.877Z,93716.06
2023-05-25T03:06:05.536Z,93727.75
2023-05-25T03:07:02.025Z,93720.16
2023-05-25T03:07:59.057Z,93716.00
2023-05-25T03:08:55.584Z,93719.41
2023-05-25T03:09:52.463Z,93718.44
2023-05-25T03:10:49.124Z,93721.50
2023-05-25T03:11:45.816Z,93721.41
2023-05-25T03:12:42.317Z,93717.72
2023-05-25T03:13:38.861Z,93713.56
2023-05-25T03:14:35.383Z,93717.00
2023-05-25T03:15:31.953Z,93723.91
2023-05-25T03:16:28.538Z,93719.41
2023-05-25T03:17:25.126Z,93721.88
2023-05-25T03:18:21.693Z,93729.19
2023-05-25T03:19:20.483Z,93732.22
2023-05-25T03:20:17.133Z,93727.09
2023-05-25T03:21:13.650Z,93729.13
2023-05-25T03:22:10.393Z,93732.03
2023-05-25T03:23:06.953Z,93734.81
2023-05-25T03:24:03.600Z,93735.34
2023-05-25T03:25:00.096Z,93739.09
2023-05-25T03:25:56.773Z,93736.25
2023-05-25T03:26:53.318Z,93735.78
2023-05-25T03:27:53.992Z,93739.41
2023-05-25T03:28:50.867Z,93730.03
2023-05-25T03:29:48.884Z,93737.78
2023-05-25T03:30:45.932Z,93738.75
2023-05-25T03:31:42.489Z,93734.72
2023-05-25T03:32:39.038Z,93743.50
2023-05-25T03:33:35.581Z,93740.53
2023-05-25T03:34:34.675Z,93744.47
2023-05-25T03:35:31.797Z,93744.47
2023-05-25T03:36:28.297Z,93741.00
2023-05-25T03:37:24.797Z,93738.41
2023-05-25T03:38:21.326Z,93736.63
2023-05-25T03:39:17.815Z,93735.38
2023-05-25T03:40:14.619Z,93737.69
2023-05-25T03:41:11.216Z,93732.47
2023-05-25T03:42:08.004Z,93737.09
2023-05-25T03:43:04.678Z,93736.38
2023-05-25T03:44:01.527Z,93733.41
2023-05-25T03:44:58.159Z,93736.94
2023-05-25T03:45:54.884Z,93739.38
2023-05-25T03:46:51.619Z,93741.41
2023-05-25T03:47:48.291Z,93742.09
2023-05-25T03:48:44.905Z,93748.31
2023-05-25T03:49:41.548Z,93745.97
2023-05-25T03:50:40.134Z,93745.38
2023-05-25T03:51:36.694Z,93749.13
2023-05-25T03:52:33.451Z,93746.03
2023-05-25T03:53:30.035Z,93741.91
2023-05-25T03:54:26.841Z,93748.47
2023-05-25T03:55:23.368Z,93755.25
2023-05-25T03:56:19.874Z,93753.34
2023-05-25T03:57:16.473Z,93751.53
2023-05-25T03:58:13.239Z,93757.47
2023-05-25T03:59:09.793Z,93752.78
2023-05-25T04:00:06.673Z,93758.34
2023-05-25T04:01:05.117Z,93755.16
2023-05-25T04:02:02.031Z,93761.59
2023-05-25T04:02:59.025Z,93756.91
2023-05-25T04:03:56.626Z,93760.28
2023-05-25T04:04:53.839Z,93764.00
2023-05-25T04:05:50.471Z,93761.56
2023-05-25T04:06:49.061Z,93758.13
2023-05-25T04:07:46.229Z,93766.19
2023-05-25T04:08:42.817Z,93757.69
2023-05-25T04:09:39.388Z,93760.41
2023-05-25T04:10:35.895Z,93759.22
2023-05-25T04:11:32.515Z,93766.28
2023-05-25T04:12:29.019Z,93763.25
2023-05-25T04:13:25.564Z,93765.66
2023-05-25T04:14:22.084Z,93766.47
2023-05-25T04:15:18.698Z,93763.50
2023-05-25T04:16:15.830Z,93771.09
2023-05-25T04:17:12.516Z,93768.97
2023-05-25T04:18:09.163Z,93769.38
2023-05-25T04:19:06.204Z,93775.44
2023-05-25T04:20:03.087Z,93777.09
2023-05-25T04:20:59.667Z,93768.22
2023-05-25T04:21:56.212Z,93769.09
2023-05-25T04:22:52.725Z,93775.84
2023-05-25T04:23:49.284Z,93772.97
2023-05-25T04:24:46.387Z,93774.00
2023-05-25T04:25:43.169Z,93769.72
2023-05-25T04:26:40.390Z,93774.53
2023-05-25T04:27:37.028Z,93771.06
2023-05-25T04:28:33.530Z,93780.03
2023-05-25T04:29:30.162Z,93787.91
2023-05-25T04:30:26.724Z,93777.81
2023-05-25T04:31:25.031Z,93779.88
2023-05-25T04:32:21.673Z,93783.72
2023-05-25T04:33:18.571Z,93785.28
2023-05-25T04:34:15.191Z,93777.88
2023-05-25T04:35:14.553Z,93789.84
2023-05-25T04:36:11.250Z,93789.91
2023-05-25T04:37:08.888Z,93793.31
2023-05-25T04:38:07.153Z,93791.09
2023-05-25T04:39:04.585Z,93783.00
2023-05-25T04:40:01.639Z,93787.09
2023-05-25T04:40:58.268Z,93790.63
2023-05-25T04:41:55.873Z,93793.03
2023-05-25T04:42:56.033Z,93792.88
2023-05-25T04:44:07.885Z,93781.66
2023-05-25T04:45:07.900Z,93784.19
2023-05-25T04:46:05.227Z,93788.44
2023-05-25T04:47:02.544Z,93788.63
2023-05-25T04:48:01.772Z,93783.72
2023-05-25T04:48:58.507Z,93780.63
2023-05-25T04:49:55.085Z,93782.19
2023-05-25T04:50:53.088Z,93777.94
2023-05-25T04:51:50.364Z,93779.13
2023-05-25T04:52:46.895Z,93778.28
2023-05-25T04:53:43.494Z,93776.81
2023-05-25T04:54:40.072Z,93777.47
2023-05-25T04:55:36.671Z,93782.19
2023-05-25T04:56:33.347Z,93774.59
2023-05-25T04:57:31.683Z,93782.25
2023-05-25T04:58:29.586Z,93778.81
2023-05-25T04:59:26.334Z,93782.38
2023-05-25T05:00:22.877Z,93784.84
2023-05-25T05:01:20.724Z,93776.56
2023-05-25T05:02:17.320Z,93773.34
2023-05-25T05:03:14.126Z,93771.94
2023-05-25T05:04:10.875Z,93772.75
2023-05-25T05:05:07.786Z,93773.63
2023-05-25T05:06:04.418Z,93772.13
2023-05-25T05:07:01.007Z,93774.84
2023-05-25T05:07:58.016Z,93781.53
2023-05-25T05:08:54.592Z,93784.34
2023-05-25T05:09:51.153Z,93773.97
2023-05-25T05:10:47.707Z,93778.56
2023-05-25T05:11:44.234Z,93786.34
2023-05-25T05:12:41.077Z,93783.28
2023-05-25T05:13:37.610Z,93789.03
2023-05-25T05:14:34.131Z,93782.50
2023-05-25T05:15:30.900Z,93783.34
2023-05-25T05:16:31.686Z,93780.31
2023-05-25T05:17:30.786Z,93781.88
2023-05-25T05:18:29.187Z,93788.53
2023-05-25T05:19:25.816Z,93772.78
2023-05-25T05:20:22.432Z,93782.41
2023-05-25T05:21:19.996Z,93776.63
2023-05-25T05:22:17.392Z,93783.59
2023-05-25T05:23:13.984Z,93789.03
2023-05-25T05:24:10.663Z,93790.19
2023-05-25T05:25:07.974Z,93789.47
2023-05-25T05:26:07.215Z,93792.53
2023-05-25T05:27:04.905Z,93795.63
2023-05-25T05:28:01.629Z,93795.97
2023-05-25T05:28:58.798Z,93796.00
2023-05-25T05:29:55.316Z,93791.69
2023-05-25T05:30:51.831Z,93795.53
2023-05-25T05:31:48.419Z,93792.06
2023-05-25T05:32:46.723Z,93795.16
2023-05-25T05:33:43.663Z,93801.69
2023-05-25T05:34:40.271Z,93799.41
2023-05-25T05:35:36.797Z,93797.94
2023-05-25T05:36:45.144Z,93806.31
2023-05-25T05:37:49.580Z,93795.84
2023-05-25T05:38:46.989Z,93798.50
2023-05-25T05:39:43.595Z,93798.13
2023-05-25T05:40:40.204Z,93804.97
2023-05-25T05:41:36.899Z,93805.03
2023-05-25T05:42:33.426Z,93807.00
2023-05-25T05:43:30.036Z,93809.19
2023-05-25T05:44:29.048Z,93801.59
2023-05-25T05:45:26.113Z,93802.75
2023-05-25T05:46:22.660Z,93810.50
2023-05-25T05:47:19.252Z,93805.50
2023-05-25T05:48:16.071Z,93807.38
2023-05-25T05:49:12.624Z,93808.53
2023-05-25T05:50:09.377Z,93800.91
2023-05-25T05:51:06.258Z,93806.31
2023-05-25T05:52:03.434Z,93802.16
2023-05-25T05:53:00.019Z,93806.06
2023-05-25T05:53:56.705Z,93806.00
2023-05-25T05:54:53.358Z,93806.41
2023-05-25T05:55:56.105Z,93806.00
2023-05-25T05:56:52.911Z,93799.84
2023-05-25T05:57:49.405Z,93798.31
2023-05-25T05:58:48.808Z,93805.63
2023-05-25T05:59:45.314Z,93801.78
2023-05-25T06:00:41.864Z,93800.97
2023-05-25T06:01:38.572Z,93804.44
2023-05-25T06:02:35.201Z,93802.16
2023-05-25T06:03:31.863Z,93803.66
2023-05-25T06:04:29.245Z,93803.28
2023-05-25T06:05:25.912Z,93801.00
2023-05-25T06:06:22.510Z,93806.81
2023-05-25T06:07:19.005Z,93801.44
2023-05-25T06:08:15.872Z,93808.78
2023-05-25T06:09:12.818Z,93803.78
2023-05-25T06:10:09.909Z,93803.41
2023-05-25T06:11:06.541Z,93801.88
2023-05-25T06:12:03.574Z,93803.03
2023-05-25T06:13:00.176Z,93803.41
2023-05-25T06:13:56.655Z,93806.88
2023-05-25T06:14:53.418Z,93806.03
2023-05-25T06:15:49.932Z,93812.19
2023-05-25T06:16:46.544Z,93810.63
2023-05-25T06:17:43.344Z,93820.56
2023-05-25T06:18:40.052Z,93814.31
2023-05-25T06:19:36.652Z,93819.84
2023-05-25T06:20:33.344Z,93820.94
2023-05-25T06:21:29.963Z,93823.28
2023-05-25T06:22:28.118Z,93819.06
2023-05-25T06:23:24.663Z,93815.84
2023-05-25T06:24:21.279Z,93818.44
2023-05-25T06:25:17.838Z,93818.44
2023-05-25T06:26:14.499Z,93734.19
2023-05-25T06:27:11.189Z,93823.22
2023-05-25T06:28:07.796Z,93816.56
2023-05-25T06:29:04.316Z,93821.84
2023-05-25T06:30:00.963Z,93819.81
2023-05-25T06:30:57.522Z,93814.03
2023-05-25T06:31:54.135Z,93820.03
2023-05-25T06:32:50.884Z,93822.63
2023-05-25T06:33:47.556Z,93816.72
2023-05-25T06:34:44.176Z,93816.09
2023-05-25T06:35:40.736Z,93812.84
2023-05-25T06:36:37.352Z,93811.19
2023-05-25T06:37:35.481Z,93815.16
2023-05-25T06:38:32.288Z,93818.81
2023-05-25T06:39:28.893Z,93814.78
2023-05-25T06:40:25.676Z,93811.41
2023-05-25T06:41:22.210Z,93818.03
2023-05-25T06:42:18.781Z,93804.44
2023-05-25T06:43:15.313Z,93811.38
2023-05-25T06:44:11.893Z,93811.06
2023-05-25T06:45:08.962Z,93813.16
2023-05-25T06:46:05.516Z,93815.28
2023-05-25T06:47:02.744Z,93817.00
2023-05-25T06:47:59.352Z,93819.38
2023-05-25T06:48:56.373Z,93820.31
2023-05-25T06:49:52.947Z,93820.28
2023-05-25T06:50:49.514Z,93823.75
2023-05-25T06:51:46.123Z,93822.56
2023-05-25T06:52:42.689Z,93811.56
2023-05-25T06:53:40.030Z,93823.88
2023-05-25T06:54:36.566Z,93829.34
2023-05-25T06:55:33.081Z,93826.28
2023-05-25T06:56:29.812Z,93831.38
2023-05-25T06:57:26.569Z,93829.78
2023-05-25T06:58:23.132Z,93829.78
2023-05-25T06:59:19.694Z,93830.47
2023-05-25T07:00:16.550Z,93826.50
2023-05-25T07:01:13.059Z,93835.47
2023-05-25T07:02:09.800Z,93828.41
2023-05-25T07:03:06.400Z,93834.09
2023-05-25T07:04:03.088Z,93829.88
2023-05-25T07:04:59.684Z,93833.53
2023-05-25T07:05:56.401Z,93824.34
2023-05-25T07:06:53.343Z,93828.22
2023-05-25T07:07:49.882Z,93836.72
2023-05-25T07:08:46.411Z,93832.94
2023-05-25T07:09:43.144Z,93817.41
2023-05-25T07:10:39.837Z,93735.16
2023-05-25T07:11:36.478Z,93833.75
2023-05-25T07:12:33.029Z,93831.78
2023-05-25T07:13:29.667Z,93828.31
2023-05-25T07:14:26.312Z,93822.09
2023-05-25T07:15:24.081Z,93822.78
2023-05-25T07:16:20.759Z,93827.81
2023-05-25T07:17:17.568Z,93831.22
2023-05-25T07:18:14.573Z,93748.16
2023-05-25T07:19:11.577Z,93829.84
2023-05-25T07:20:09.019Z,93826.44
2023-05-25T07:21:06.054Z,93825.66
2023-05-25T07:22:03.064Z,93826.03
2023-05-25T07:22:59.641Z,93833.69
2023-05-25T07:23:56.214Z,93834.44
2023-05-25T07:24:52.740Z,93834.16
2023-05-25T07:25:49.829Z,93826.13
2023-05-25T07:26:46.462Z,93825.69
2023-05-25T07:27:48.597Z,93829.91
2023-05-25T07:28:45.208Z,93826.81
2023-05-25T07:29:41.716Z,93834.53
2023-05-25T07:30:38.270Z,93836.06
2023-05-25T07:31:34.841Z,93839.94
2023-05-25T07:32:31.364Z,93835.72
2023-05-25T07:33:27.958Z,93839.19
2023-05-25T07:34:26.450Z,93836.88
2023-05-25T07:35:27.163Z,93837.25
2023-05-25T07:36:24.986Z,93840.00
2023-05-25T07:37:21.656Z,93841.91
2023-05-25T07:38:18.390Z,93842.69
2023-05-25T07:39:15.043Z,93837.66
2023-05-25T07:40:11.756Z,93842.25
2023-05-25T07:41:08.353Z,93834.59
2023-05-25T07:42:05.045Z,93838.81
2023-05-25T07:43:02.053Z,93843.44
2023-05-25T07:43:58.591Z,93848.09
2023-05-25T07:44:55.127Z,93841.16
2023-05-25T07:45:51.792Z,93847.72
2023-05-25T07:46:48.413Z,93850.41
2023-05-25T07:47:45.041Z,93849.25
2023-05-25T07:48:41.577Z,93853.91
2023-05-25T07:49:38.047Z,93858.50
2023-05-25T07:50:34.596Z,93861.59
2023-05-25T07:51:32.890Z,93861.59
2023-05-25T07:52:29.437Z,93866.97
2023-05-25T07:53:26.129Z,93866.22
2023-05-25T07:54:22.706Z,93873.91
2023-05-25T07:55:20.299Z,93884.63
2023-05-25T07:56:16.812Z,93885.31
2023-05-25T07:57:13.337Z,93882.59
2023-05-25T07:58:09.942Z,93883.78
2023-05-25T07:59:06.629Z,93881.84
2023-05-25T08:00:06.298Z,93887.19
2023-05-25T08:01:03.386Z,93888.63
2023-05-25T08:01:59.961Z,93887.38
2023-05-25T08:02:56.885Z,93892.97
2023-05-25T08:03:53.659Z,93890.50
2023-05-25T08:04:50.794Z,93890.38
2023-05-25T08:05:47.354Z,93891.13
2023-05-25T08:06:44.447Z,93899.06
2023-05-25T08:07:42.823Z,93902.72
2023-05-25T08:08:39.734Z,93902.81
2023-05-25T08:09:36.337Z,93907.28
2023-05-25T08:10:32.938Z,93905.81
2023-05-25T08:11:29.490Z,93907.25
2023-05-25T08:12:46.184Z,93908.44
2023-05-25T08:13:42.906Z,93910.50
2023-05-25T08:14:39.450Z,93905.00
2023-05-25T08:15:36.044Z,93908.69
2023-05-25T08:16:32.715Z,93908.31
2023-05-25T08:17:29.329Z,93910.16
2023-05-25T08:18:26.178Z,93907.06
2023-05-25T08:19:22.747Z,93905.66
2023-05-25T08:20:19.505Z,93903.56
2023-05-25T08:21:16.193Z,93907.72
2023-05-25T08:22:12.818Z,93908.41
2023-05-25T08:23:09.687Z,93900.78
2023-05-25T08:24:08.434Z,93904.59
2023-05-25T08:25:05.573Z,93900.03
2023-05-25T08:26:05.953Z,93905.31
2023-05-25T08:27:08.300Z,93906.09
2023-05-25T08:28:04.857Z,93899.22
2023-05-25T08:29:02.457Z,93902.28
2023-05-25T08:29:59.052Z,93900.16
2023-05-25T08:30:55.623Z,93897.25
2023-05-25T08:31:53.256Z,93894.88
2023-05-25T08:32:49.866Z,93897.16
2023-05-25T08:33:46.396Z,93898.44
2023-05-25T08:34:43.122Z,93886.25
2023-05-25T08:35:42.810Z,93901.22
2023-05-25T08:36:39.597Z,93902.59
2023-05-25T08:37:36.102Z,93902.25
2023-05-25T08:38:32.726Z,93908.34
2023-05-25T08:39:29.321Z,93908.31
2023-05-25T08:40:28.107Z,93914.22
2023-05-25T08:41:24.655Z,93914.47
2023-05-25T08:42:21.417Z,93909.91
2023-05-25T08:43:17.964Z,93917.69
2023-05-25T08:44:15.520Z,93917.69
2023-05-25T08:45:22.608Z,93905.00
2023-05-25T08:46:33.090Z,93913.00
2023-05-25T08:47:32.233Z,93919.97
2023-05-25T08:48:39.946Z,93917.63
2023-05-25T08:49:39.106Z,93913.25
2023-05-25T08:50:35.932Z,93915.44
2023-05-25T08:51:37.133Z,93923.91
2023-05-25T08:52:34.527Z,93920.63
2023-05-25T08:53:34.758Z,93922.00
2023-05-25T08:54:43.273Z,93922.63
2023-05-25T08:55:41.157Z,93922.97
2023-05-25T08:56:59.409Z,93919.47
2023-05-25T08:58:02.819Z,93928.34
2023-05-25T08:59:04.200Z,93924.22
2023-05-25T09:00:15.773Z,93923.06
2023-05-25T09:01:15.108Z,93920.97
2023-05-25T09:02:33.232Z,93823.44
2023-05-25T09:03:30.827Z,93919.66
2023-05-25T09:04:28.200Z,93918.88
2023-05-25T09:05:24.998Z,93912.66
2023-05-25T09:06:22.853Z,93925.38
2023-05-25T09:07:19.447Z,93909.94
2023-05-25T09:08:17.097Z,93910.75
2023-05-25T09:09:13.832Z,93912.19
2023-05-25T09:10:14.444Z,93912.81
2023-05-25T09:11:16.190Z,93910.44
2023-05-25T09:12:14.757Z,93908.94
2023-05-25T09:13:21.154Z,93908.16
2023-05-25T09:14:19.544Z,93905.22
2023-05-25T09:15:17.011Z,93904.34
2023-05-25T09:16:13.571Z,93904.97
2023-05-25T09:17:10.114Z,93907.78
2023-05-25T09:18:06.707Z,93911.56
2023-05-25T09:19:03.242Z,93902.41
2023-05-25T09:19:59.827Z,93900.81
2023-05-25T09:20:56.878Z,93901.16
2023-05-25T09:22:03.198Z,93901.16
2023-05-25T09:23:04.013Z,93896.50
2023-05-25T09:24:00.662Z,93895.72
2023-05-25T09:24:57.369Z,93894.53
2023-05-25T09:25:53.961Z,93903.22
2023-05-25T09:26:50.708Z,93892.84
2023-05-25T09:27:47.443Z,93793.75
2023-05-25T09:28:48.130Z,93895.03
2023-05-25T09:29:49.124Z,93896.78
2023-05-25T09:30:46.052Z,93894.53
2023-05-25T09:31:43.148Z,93886.84
2023-05-25T09:32:39.752Z,93887.91
2023-05-25T09:33:38.818Z,93879.41
2023-05-25T09:34:35.597Z,93883.44
2023-05-25T09:35:32.139Z,93885.56
2023-05-25T09:36:29.144Z,93883.91
2023-05-25T09:37:25.982Z,93878.97
2023-05-25T09:38:22.930Z,93885.00
2023-05-25T09:39:19.940Z,93889.59
2023-05-25T09:40:17.756Z,93884.19
2023-05-25T09:41:14.728Z,93891.13
2023-05-25T09:42:11.963Z,93885.06
2023-05-25T09:43:08.518Z,93887.91
2023-05-25T09:44:10.898Z,93882.97
2023-05-25T09:45:08.931Z,93886.09
2023-05-25T09:46:05.559Z,93882.13
2023-05-25T09:47:02.566Z,93886.09
2023-05-25T09:47:59.633Z,93881.53
2023-05-25T09:48:56.616Z,93887.03
2023-05-25T09:49:53.526Z,93881.34
2023-05-25T09:50:51.387Z,93882.16
2023-05-25T09:51:48.068Z,93882.59
2023-05-25T09:52:45.253Z,93883.03
2023-05-25T09:53:42.308Z,93877.69
2023-05-25T09:54:39.348Z,93889.81
2023-05-25T09:55:52.225Z,93880.41
2023-05-25T09:56:49.565Z,93881.78
2023-05-25T09:57:46.323Z,93882.22
2023-05-25T09:58:42.872Z,93876.53
2023-05-25T09:59:39.406Z,93870.84
2023-05-25T10:00:35.919Z,93876.22
2023-05-25T10:01:33.220Z,93870.00
2023-05-25T10:02:29.912Z,93872.13
2023-05-25T10:03:26.507Z,93869.16
2023-05-25T10:04:23.114Z,93873.53
2023-05-25T10:05:19.743Z,93864.69
2023-05-25T10:06:16.953Z,93861.00
2023-05-25T10:07:13.513Z,93856.88
2023-05-25T10:08:11.161Z,93866.22
2023-05-25T10:09:09.208Z,93858.97
2023-05-25T10:10:07.968Z,93856.03
2023-05-25T10:11:05.696Z,93856.22
2023-05-25T10:12:02.504Z,93855.78
2023-05-25T10:12:59.195Z,93846.34
2023-05-25T10:13:56.174Z,93847.91
2023-05-25T10:14:54.271Z,93846.00
2023-05-25T10:15:52.949Z,93847.41
2023-05-25T10:16:53.029Z,93839.06
2023-05-25T10:17:54.802Z,93834.53
2023-05-25T10:18:57.386Z,93835.16
2023-05-25T10:19:58.435Z,93836.78
2023-05-25T10:21:02.631Z,93835.66
2023-05-25T10:22:13.888Z,93833.41
2023-05-25T10:23:11.509Z,93822.06
2023-05-25T10:24:18.906Z,93832.47
2023-05-25T10:25:25.972Z,93823.50
2023-05-25T10:26:24.214Z,93820.09
2023-05-25T10:27:27.480Z,93816.25
2023-05-25T10:28:29.044Z,93821.59
2023-05-25T10:29:28.200Z,93818.88
2023-05-25T10:30:26.713Z,93820.84
2023-05-25T10:31:28.199Z,93823.13
2023-05-25T10:32:25.407Z,93828.84
2023-05-25T10:33:22.158Z,93826.56
2023-05-25T10:34:19.411Z,93822.03
2023-05-25T10:35:16.464Z,93834.78
2023-05-25T10:36:18.039Z,93819.38
2023-05-25T10:37:14.780Z,93816.22
2023-05-25T10:38:12.235Z,93825.09
2023-05-25T10:39:09.345Z,93819.09
2023-05-25T10:40:08.585Z,93829.00
2023-05-25T10:41:06.039Z,93827.50
2023-05-25T10:42:03.996Z,93822.16
2023-05-25T10:43:01.052Z,93822.13
2023-05-25T10:43:57.871Z,93821.81
2023-05-25T10:44:55.033Z,93822.56
2023-05-25T10:45:51.590Z,93826.81
2023-05-25T10:46:48.662Z,93813.78
2023-05-25T10:47:46.626Z,93811.50
2023-05-25T10:48:48.377Z,93829.09
2023-05-25T10:49:53.676Z,93822.97
2023-05-25T10:50:51.027Z,93814.13
2023-05-25T10:51:57.272Z,93825.66
2023-05-25T10:53:07.000Z,93820.63
2023-05-25T10:54:03.742Z,93816.78
2023-05-25T10:55:07.202Z,93815.63
2023-05-25T10:56:05.203Z,93818.38
2023-05-25T10:57:28.263Z,93814.91
2023-05-25T10:58:27.173Z,93808.81
2023-05-25T10:59:29.766Z,93808.78
2023-05-25T11:00:26.385Z,93809.19
2023-05-25T11:01:23.289Z,93806.88
2023-05-25T11:02:23.483Z,93806.13
2023-05-25T11:03:20.854Z,93802.66
2023-05-25T11:04:17.677Z,93803.03
2023-05-25T11:05:26.830Z,93803.78
2023-05-25T11:06:46.489Z,93804.56
2023-05-25T11:08:05.108Z,93804.09
2023-05-25T11:09:04.305Z,93804.16
2023-05-25T11:10:00.951Z,93802.94
2023-05-25T11:10:58.940Z,93806.03
2023-05-25T11:12:02.369Z,93808.00
2023-05-25T11:13:18.868Z,93799.13
2023-05-25T11:14:22.293Z,93803.00
2023-05-25T11:15:21.055Z,93808.00
2023-05-25T11:16:20.458Z,93811.38
2023-05-25T11:17:20.157Z,93809.41
2023-05-25T11:18:16.777Z,93815.00
2023-05-25T11:19:16.213Z,93813.03
2023-05-25T11:20:21.448Z,93806.41
2023-05-25T11:21:22.812Z,93819.56